Home   Weather   USA   Frederick   Past weeks
Flag for USA

Past Weather in Frederick, Maryland, USA — Yesterday and Last 2 Weeks

Currently: 73 °F. Low clouds. (Weather station: Frederick Municipal Airport, USA). See more current weather

Past Weather in Frederick — Graph

°F

Frederick Temperature Yesterday

Maximum temperature yesterday: 93 °F (at 4:47 pm)
Minimum temperature yesterday: 64 °F (at 4:35 am)
Average temperature yesterday: 76 °F

High & Low Weather Summary for the Past Weeks

 TemperatureHumidityPressure
High95 °F (Jun 6, 4:47 pm)100% (Jun 7, 2:15 am)30.11 "Hg (Jun 7, 2:15 am)
Low50 °F (Jun 17, 5:55 am)21% (Jun 17, 4:47 pm)29.72 "Hg (Jun 14, 7:47 pm)
Average72 °F77%29.94 "Hg
* Reported Jun 6 6:15 am — Jun 21 6:15 am, Frederick. Weather by CustomWeather, © 2021

Note: Actual official high and low records may vary slightly from our data, if they occured in-between our weather recording intervals... More about our weather records

Frederick Weather History for the Previous 24 Hours

Scroll right to see more
 ConditionsComfort  
Time TempWeatherWind HumidityBarometerVisibility
6:15 am
Mon, Jun 21
72 °FPartly sunny.No wind94%29.76 "Hg10 mi
2:15 am75 °FClear.5 mph89%29.75 "Hg10 mi
1:55 am75 °FClear.6 mph89%29.75 "Hg10 mi
1:35 am77 °FClear.7 mph83%29.76 "Hg10 mi
1:15 am77 °FClear.7 mph83%29.75 "Hg10 mi
12:55 am77 °FClear.7 mph83%29.76 "Hg10 mi
12:35 am77 °FClear.6 mph79%29.77 "Hg10 mi
12:15 am79 °FClear.7 mph74%29.77 "Hg10 mi
11:55 pm
Sun, Jun 20
79 °FClear.6 mph74%29.78 "Hg10 mi
11:35 pm79 °FClear.5 mph74%29.79 "Hg10 mi
11:15 pm79 °FClear.6 mph74%29.78 "Hg10 mi
10:55 pm81 °FClear.7 mph70%29.77 "Hg10 mi
10:35 pm79 °FClear.5 mph74%29.78 "Hg10 mi
10:15 pm79 °FClear.3 mph74%29.78 "Hg10 mi
9:55 pm81 °FClear.3 mph70%29.78 "Hg10 mi
9:35 pm81 °FClear.5 mph66%29.79 "Hg10 mi
9:15 pm81 °FClear.5 mph70%29.79 "Hg10 mi
8:47 pm84 °FClear.8 mph66%29.78 "Hg10 mi
7:47 pm88 °FSunny.5 mph55%29.77 "Hg10 mi
6:47 pm91 °FSunny.5 mph46%29.76 "Hg10 mi
5:47 pm93 °FScattered clouds.5 mph39%29.76 "Hg10 mi
4:47 pm93 °FScattered clouds.13 mph41%29.76 "Hg10 mi
3:47 pm91 °FScattered clouds.7 mph44%29.78 "Hg10 mi
2:47 pm91 °FScattered clouds.7 mph46%29.80 "Hg10 mi
1:47 pm90 °FScattered clouds.No wind49%29.80 "Hg10 mi
12:47 pm88 °FScattered clouds.3 mph52%29.83 "Hg10 mi
11:47 am88 °FSunny.6 mph55%29.85 "Hg10 mi
10:47 am82 °FSunny.7 mph66%29.85 "Hg10 mi
9:47 am82 °FSunny.7 mph66%29.86 "Hg10 mi
8:47 am75 °FScattered clouds.6 mph83%29.89 "Hg8 mi
7:47 am70 °FScattered clouds.No wind94%29.88 "Hg7 mi
Weather by CustomWeather, © 2021

See weather overview